sensor_id;sensor_type;location;lat;lon;timestamp;P1;durP1;ratioP1;P2;durP2;ratioP2
17595;SDS011;8916;47.086;15.920;2022-10-31T00:01:45;33.92;;;18.77;;
17595;SDS011;8916;47.086;15.920;2022-10-31T00:04:16;25.50;;;18.20;;
17595;SDS011;8916;47.086;15.920;2022-10-31T00:06:46;54.20;;;19.98;;
17595;SDS011;8916;47.086;15.920;2022-10-31T00:09:18;46.97;;;19.85;;
17595;SDS011;8916;47.086;15.920;2022-10-31T00:11:47;25.40;;;18.73;;
17595;SDS011;8916;47.086;15.920;2022-10-31T00:14:16;24.38;;;20.13;;
17595;SDS011;8916;47.086;15.920;2022-10-31T00:16:47;27.08;;;19.63;;
17595;SDS011;8916;47.086;15.920;2022-10-31T00:19:16;23.33;;;19.23;;
17595;SDS011;8916;47.086;15.920;2022-10-31T00:21:45;107.60;;;24.20;;
17595;SDS011;8916;47.086;15.920;2022-10-31T00:24:14;56.28;;;20.45;;
17595;SDS011;8916;47.086;15.920;2022-10-31T00:26:44;49.67;;;22.75;;
17595;SDS011;8916;47.086;15.920;2022-10-31T00:29:13;58.65;;;20.45;;
17595;SDS011;8916;47.086;15.920;2022-10-31T00:31:42;31.38;;;18.52;;
17595;SDS011;8916;47.086;15.920;2022-10-31T00:34:13;45.80;;;18.55;;
17595;SDS011;8916;47.086;15.920;2022-10-31T00:36:42;20.70;;;17.80;;
17595;SDS011;8916;47.086;15.920;2022-10-31T00:39:13;27.38;;;16.60;;
17595;SDS011;8916;47.086;15.920;2022-10-31T00:41:42;23.80;;;16.80;;
17595;SDS011;8916;47.086;15.920;2022-10-31T00:44:12;63.97;;;17.25;;
17595;SDS011;8916;47.086;15.920;2022-10-31T00:46:42;37.85;;;17.55;;
17595;SDS011;8916;47.086;15.920;2022-10-31T00:49:13;90.57;;;21.33;;
17595;SDS011;8916;47.086;15.920;2022-10-31T00:51:43;21.83;;;15.82;;
17595;SDS011;8916;47.086;15.920;2022-10-31T00:54:12;21.38;;;14.68;;
17595;SDS011;8916;47.086;15.920;2022-10-31T00:56:44;27.25;;;17.02;;
17595;SDS011;8916;47.086;15.920;2022-10-31T00:59:13;23.95;;;15.32;;
17595;SDS011;8916;47.086;15.920;2022-10-31T01:01:42;54.97;;;21.23;;
17595;SDS011;8916;47.086;15.920;2022-10-31T01:04:16;51.40;;;22.10;;
17595;SDS011;8916;47.086;15.920;2022-10-31T01:06:45;41.22;;;19.08;;
17595;SDS011;8916;47.086;15.920;2022-10-31T01:09:16;50.75;;;21.52;;
17595;SDS011;8916;47.086;15.920;2022-10-31T01:11:45;46.47;;;20.75;;
17595;SDS011;8916;47.086;15.920;2022-10-31T01:14:17;30.50;;;18.92;;
17595;SDS011;8916;47.086;15.920;2022-10-31T01:16:46;29.35;;;19.60;;
17595;SDS011;8916;47.086;15.920;2022-10-31T01:19:17;22.63;;;18.30;;
17595;SDS011;8916;47.086;15.920;2022-10-31T01:21:47;28.52;;;18.65;;
17595;SDS011;8916;47.086;15.920;2022-10-31T01:24:16;25.83;;;17.70;;
17595;SDS011;8916;47.086;15.920;2022-10-31T01:26:45;30.70;;;18.45;;
17595;SDS011;8916;47.086;15.920;2022-10-31T01:29:14;24.67;;;17.77;;
17595;SDS011;8916;47.086;15.920;2022-10-31T01:31:45;27.00;;;17.13;;
17595;SDS011;8916;47.086;15.920;2022-10-31T01:34:15;30.58;;;17.50;;
17595;SDS011;8916;47.086;15.920;2022-10-31T01:36:46;29.38;;;16.95;;
17595;SDS011;8916;47.086;15.920;2022-10-31T01:39:18;25.13;;;15.82;;
17595;SDS011;8916;47.086;15.920;2022-10-31T01:41:48;21.00;;;15.90;;
17595;SDS011;8916;47.086;15.920;2022-10-31T01:47:22;22.90;;;15.80;;
17595;SDS011;8916;47.086;15.920;2022-10-31T01:50:20;26.88;;;16.80;;
17595;SDS011;8916;47.086;15.920;2022-10-31T01:52:58;29.70;;;16.77;;
17595;SDS011;8916;47.086;15.920;2022-10-31T01:55:29;29.73;;;17.17;;
17595;SDS011;8916;47.086;15.920;2022-10-31T01:58:04;32.65;;;17.80;;
17595;SDS011;8916;47.086;15.920;2022-10-31T02:00:38;31.05;;;17.70;;
17595;SDS011;8916;47.086;15.920;2022-10-31T02:03:09;33.53;;;17.98;;
17595;SDS011;8916;47.086;15.920;2022-10-31T02:05:40;38.00;;;18.25;;
17595;SDS011;8916;47.086;15.920;2022-10-31T02:08:12;25.92;;;16.33;;
17595;SDS011;8916;47.086;15.920;2022-10-31T02:10:49;42.72;;;15.93;;
17595;SDS011;8916;47.086;15.920;2022-10-31T02:13:19;37.25;;;15.75;;
17595;SDS011;8916;47.086;15.920;2022-10-31T02:15:56;27.20;;;15.27;;
17595;SDS011;8916;47.086;15.920;2022-10-31T02:18:29;34.25;;;17.08;;
17595;SDS011;8916;47.086;15.920;2022-10-31T02:21:01;35.25;;;16.33;;
17595;SDS011;8916;47.086;15.920;2022-10-31T02:27:16;64.82;;;17.58;;
17595;SDS011;8916;47.086;15.920;2022-10-31T02:30:07;52.78;;;15.73;;
17595;SDS011;8916;47.086;15.920;2022-10-31T02:32:58;33.38;;;15.30;;
17595;SDS011;8916;47.086;15.920;2022-10-31T02:35:50;22.67;;;15.07;;
17595;SDS011;8916;47.086;15.920;2022-10-31T02:38:37;33.03;;;16.45;;
17595;SDS011;8916;47.086;15.920;2022-10-31T02:41:32;23.00;;;15.90;;
17595;SDS011;8916;47.086;15.920;2022-10-31T02:44:12;22.85;;;14.73;;
17595;SDS011;8916;47.086;15.920;2022-10-31T02:46:50;27.88;;;15.70;;
17595;SDS011;8916;47.086;15.920;2022-10-31T02:49:32;22.77;;;15.88;;
17595;SDS011;8916;47.086;15.920;2022-10-31T02:52:17;25.52;;;15.75;;
17595;SDS011;8916;47.086;15.920;2022-10-31T02:54:47;29.23;;;16.10;;
17595;SDS011;8916;47.086;15.920;2022-10-31T02:57:19;22.42;;;14.65;;
17595;SDS011;8916;47.086;15.920;2022-10-31T02:59:54;17.83;;;14.13;;
17595;SDS011;8916;47.086;15.920;2022-10-31T03:02:31;22.27;;;14.23;;
17595;SDS011;8916;47.086;15.920;2022-10-31T03:05:21;34.40;;;15.10;;
17595;SDS011;8916;47.086;15.920;2022-10-31T03:08:16;17.77;;;13.70;;
17595;SDS011;8916;47.086;15.920;2022-10-31T03:10:53;28.10;;;14.38;;
17595;SDS011;8916;47.086;15.920;2022-10-31T03:13:29;22.35;;;13.93;;
17595;SDS011;8916;47.086;15.920;2022-10-31T03:16:09;26.27;;;14.38;;
17595;SDS011;8916;47.086;15.920;2022-10-31T03:18:47;15.13;;;13.03;;
17595;SDS011;8916;47.086;15.920;2022-10-31T03:21:24;18.08;;;13.45;;
17595;SDS011;8916;47.086;15.920;2022-10-31T03:23:59;16.70;;;12.75;;
17595;SDS011;8916;47.086;15.920;2022-10-31T03:26:34;23.95;;;13.98;;
17595;SDS011;8916;47.086;15.920;2022-10-31T03:29:09;18.48;;;12.88;;
17595;SDS011;8916;47.086;15.920;2022-10-31T03:31:42;31.55;;;13.30;;
17595;SDS011;8916;47.086;15.920;2022-10-31T03:34:16;18.13;;;12.18;;
17595;SDS011;8916;47.086;15.920;2022-10-31T03:36:50;15.05;;;12.88;;
17595;SDS011;8916;47.086;15.920;2022-10-31T03:39:23;20.52;;;12.20;;
17595;SDS011;8916;47.086;15.920;2022-10-31T03:41:54;16.83;;;12.07;;
17595;SDS011;8916;47.086;15.920;2022-10-31T03:44:32;17.30;;;12.13;;
17595;SDS011;8916;47.086;15.920;2022-10-31T03:47:02;13.98;;;10.73;;
17595;SDS011;8916;47.086;15.920;2022-10-31T03:49:33;14.57;;;10.73;;
17595;SDS011;8916;47.086;15.920;2022-10-31T03:52:07;14.48;;;10.07;;
17595;SDS011;8916;47.086;15.920;2022-10-31T03:54:49;14.35;;;10.48;;
17595;SDS011;8916;47.086;15.920;2022-10-31T03:57:24;14.68;;;10.40;;
17595;SDS011;8916;47.086;15.920;2022-10-31T04:00:05;12.75;;;10.00;;
17595;SDS011;8916;47.086;15.920;2022-10-31T04:02:47;28.17;;;11.20;;
17595;SDS011;8916;47.086;15.920;2022-10-31T04:05:26;31.38;;;11.02;;
17595;SDS011;8916;47.086;15.920;2022-10-31T04:08:04;25.25;;;12.20;;
17595;SDS011;8916;47.086;15.920;2022-10-31T04:10:44;64.35;;;13.90;;
17595;SDS011;8916;47.086;15.920;2022-10-31T04:13:21;31.45;;;14.90;;
17595;SDS011;8916;47.086;15.920;2022-10-31T04:16:02;41.70;;;15.20;;
17595;SDS011;8916;47.086;15.920;2022-10-31T04:18:41;78.47;;;15.38;;
17595;SDS011;8916;47.086;15.920;2022-10-31T04:21:10;41.70;;;13.15;;
17595;SDS011;8916;47.086;15.920;2022-10-31T04:23:41;114.97;;;17.65;;
17595;SDS011;8916;47.086;15.920;2022-10-31T04:26:18;133.50;;;20.63;;
17595;SDS011;8916;47.086;15.920;2022-10-31T04:28:47;257.23;;;23.65;;
17595;SDS011;8916;47.086;15.920;2022-10-31T04:31:18;192.98;;;25.23;;
17595;SDS011;8916;47.086;15.920;2022-10-31T04:33:49;212.30;;;28.48;;
17595;SDS011;8916;47.086;15.920;2022-10-31T04:36:18;55.15;;;18.98;;
17595;SDS011;8916;47.086;15.920;2022-10-31T04:38:49;301.83;;;29.88;;
17595;SDS011;8916;47.086;15.920;2022-10-31T04:41:33;117.43;;;20.75;;
17595;SDS011;8916;47.086;15.920;2022-10-31T04:44:07;62.75;;;18.08;;
17595;SDS011;8916;47.086;15.920;2022-10-31T04:46:37;142.30;;;21.48;;
17595;SDS011;8916;47.086;15.920;2022-10-31T04:49:07;185.40;;;24.77;;
17595;SDS011;8916;47.086;15.920;2022-10-31T04:51:36;45.15;;;16.63;;
17595;SDS011;8916;47.086;15.920;2022-10-31T04:54:09;34.85;;;16.92;;
17595;SDS011;8916;47.086;15.920;2022-10-31T04:56:56;31.48;;;15.15;;
17595;SDS011;8916;47.086;15.920;2022-10-31T04:59:27;34.47;;;15.07;;
17595;SDS011;8916;47.086;15.920;2022-10-31T05:01:59;34.47;;;15.50;;
17595;SDS011;8916;47.086;15.920;2022-10-31T05:04:42;60.28;;;14.85;;
17595;SDS011;8916;47.086;15.920;2022-10-31T05:07:11;53.55;;;15.70;;
17595;SDS011;8916;47.086;15.920;2022-10-31T05:09:47;42.28;;;14.95;;
17595;SDS011;8916;47.086;15.920;2022-10-31T05:12:18;25.48;;;14.23;;
17595;SDS011;8916;47.086;15.920;2022-10-31T05:15:06;36.10;;;14.18;;
17595;SDS011;8916;47.086;15.920;2022-10-31T05:17:42;37.15;;;13.35;;
17595;SDS011;8916;47.086;15.920;2022-10-31T05:20:30;18.40;;;13.05;;
17595;SDS011;8916;47.086;15.920;2022-10-31T05:23:17;49.13;;;15.45;;
17595;SDS011;8916;47.086;15.920;2022-10-31T05:25:48;27.13;;;15.65;;
17595;SDS011;8916;47.086;15.920;2022-10-31T05:28:18;29.88;;;14.18;;
17595;SDS011;8916;47.086;15.920;2022-10-31T05:30:47;16.08;;;13.57;;
17595;SDS011;8916;47.086;15.920;2022-10-31T05:33:16;18.92;;;13.85;;
17595;SDS011;8916;47.086;15.920;2022-10-31T05:36:04;21.45;;;13.65;;
17595;SDS011;8916;47.086;15.920;2022-10-31T05:38:41;21.80;;;13.65;;
17595;SDS011;8916;47.086;15.920;2022-10-31T05:41:25;27.25;;;14.20;;
17595;SDS011;8916;47.086;15.920;2022-10-31T05:44:03;32.03;;;13.18;;
17595;SDS011;8916;47.086;15.920;2022-10-31T05:46:45;67.35;;;14.73;;
17595;SDS011;8916;47.086;15.920;2022-10-31T05:49:35;32.42;;;12.80;;
17595;SDS011;8916;47.086;15.920;2022-10-31T05:52:22;16.75;;;12.02;;
17595;SDS011;8916;47.086;15.920;2022-10-31T05:55:01;34.15;;;12.80;;
17595;SDS011;8916;47.086;15.920;2022-10-31T05:57:32;17.02;;;11.60;;
17595;SDS011;8916;47.086;15.920;2022-10-31T06:00:02;32.35;;;12.18;;
17595;SDS011;8916;47.086;15.920;2022-10-31T06:02:47;12.75;;;10.93;;
17595;SDS011;8916;47.086;15.920;2022-10-31T06:05:44;17.05;;;11.23;;
17595;SDS011;8916;47.086;15.920;2022-10-31T06:08:21;26.80;;;11.65;;
17595;SDS011;8916;47.086;15.920;2022-10-31T06:10:50;23.45;;;11.30;;
17595;SDS011;8916;47.086;15.920;2022-10-31T06:13:42;21.00;;;11.98;;
17595;SDS011;8916;47.086;15.920;2022-10-31T06:16:18;19.17;;;12.75;;
17595;SDS011;8916;47.086;15.920;2022-10-31T06:18:47;22.25;;;10.68;;
17595;SDS011;8916;47.086;15.920;2022-10-31T06:21:17;19.23;;;11.07;;
17595;SDS011;8916;47.086;15.920;2022-10-31T06:23:49;14.95;;;10.35;;
17595;SDS011;8916;47.086;15.920;2022-10-31T06:26:39;11.00;;;9.70;;
17595;SDS011;8916;47.086;15.920;2022-10-31T06:29:10;15.35;;;11.15;;
17595;SDS011;8916;47.086;15.920;2022-10-31T06:32:02;20.92;;;10.55;;
17595;SDS011;8916;47.086;15.920;2022-10-31T06:34:37;20.80;;;10.48;;
17595;SDS011;8916;47.086;15.920;2022-10-31T06:37:08;26.45;;;10.88;;
17595;SDS011;8916;47.086;15.920;2022-10-31T06:39:41;13.60;;;10.18;;
17595;SDS011;8916;47.086;15.920;2022-10-31T06:42:14;30.25;;;10.90;;
17595;SDS011;8916;47.086;15.920;2022-10-31T06:44:45;17.88;;;9.82;;
17595;SDS011;8916;47.086;15.920;2022-10-31T06:47:33;38.97;;;12.80;;
17595;SDS011;8916;47.086;15.920;2022-10-31T06:50:26;25.02;;;10.80;;
17595;SDS011;8916;47.086;15.920;2022-10-31T06:52:56;20.77;;;10.80;;
17595;SDS011;8916;47.086;15.920;2022-10-31T06:55:26;19.17;;;10.88;;
17595;SDS011;8916;47.086;15.920;2022-10-31T06:57:57;33.58;;;16.17;;
17595;SDS011;8916;47.086;15.920;2022-10-31T07:00:32;34.40;;;10.85;;
17595;SDS011;8916;47.086;15.920;2022-10-31T07:03:08;28.98;;;10.68;;
17595;SDS011;8916;47.086;15.920;2022-10-31T07:05:40;22.90;;;10.00;;
17595;SDS011;8916;47.086;15.920;2022-10-31T07:08:12;18.80;;;10.23;;
17595;SDS011;8916;47.086;15.920;2022-10-31T07:10:42;21.77;;;9.85;;
17595;SDS011;8916;47.086;15.920;2022-10-31T07:13:19;26.30;;;10.20;;
17595;SDS011;8916;47.086;15.920;2022-10-31T07:16:02;30.75;;;10.38;;
17595;SDS011;8916;47.086;15.920;2022-10-31T07:18:35;33.90;;;11.50;;
17595;SDS011;8916;47.086;15.920;2022-10-31T07:21:05;21.77;;;9.88;;
17595;SDS011;8916;47.086;15.920;2022-10-31T07:23:34;18.98;;;10.27;;
17595;SDS011;8916;47.086;15.920;2022-10-31T07:26:22;12.60;;;9.40;;
17595;SDS011;8916;47.086;15.920;2022-10-31T07:28:51;14.13;;;9.20;;
17595;SDS011;8916;47.086;15.920;2022-10-31T07:31:25;16.55;;;10.00;;
17595;SDS011;8916;47.086;15.920;2022-10-31T07:34:00;29.38;;;11.05;;
17595;SDS011;8916;47.086;15.920;2022-10-31T07:36:55;11.40;;;9.43;;
17595;SDS011;8916;47.086;15.920;2022-10-31T07:39:24;14.18;;;10.25;;
17595;SDS011;8916;47.086;15.920;2022-10-31T07:41:53;12.90;;;10.05;;
17595;SDS011;8916;47.086;15.920;2022-10-31T07:44:22;18.25;;;9.90;;
17595;SDS011;8916;47.086;15.920;2022-10-31T07:47:11;13.38;;;9.90;;
17595;SDS011;8916;47.086;15.920;2022-10-31T07:49:58;14.57;;;10.30;;
17595;SDS011;8916;47.086;15.920;2022-10-31T07:55:39;12.90;;;9.98;;
17595;SDS011;8916;47.086;15.920;2022-10-31T07:58:09;17.05;;;9.68;;
17595;SDS011;8916;47.086;15.920;2022-10-31T08:00:41;15.52;;;10.75;;
17595;SDS011;8916;47.086;15.920;2022-10-31T08:03:18;16.65;;;9.57;;
17595;SDS011;8916;47.086;15.920;2022-10-31T08:06:06;12.68;;;9.20;;
17595;SDS011;8916;47.086;15.920;2022-10-31T08:08:38;11.43;;;9.23;;
17595;SDS011;8916;47.086;15.920;2022-10-31T08:11:08;10.32;;;9.02;;
17595;SDS011;8916;47.086;15.920;2022-10-31T08:13:38;17.98;;;8.95;;
17595;SDS011;8916;47.086;15.920;2022-10-31T08:16:09;9.52;;;8.52;;
17595;SDS011;8916;47.086;15.920;2022-10-31T08:18:50;12.27;;;8.85;;
17595;SDS011;8916;47.086;15.920;2022-10-31T08:21:20;14.90;;;8.60;;
17595;SDS011;8916;47.086;15.920;2022-10-31T08:23:50;12.68;;;9.05;;
17595;SDS011;8916;47.086;15.920;2022-10-31T08:26:22;12.00;;;8.75;;
17595;SDS011;8916;47.086;15.920;2022-10-31T08:28:54;10.60;;;8.48;;
17595;SDS011;8916;47.086;15.920;2022-10-31T08:31:26;10.88;;;8.82;;
17595;SDS011;8916;47.086;15.920;2022-10-31T08:34:21;10.70;;;8.48;;
17595;SDS011;8916;47.086;15.920;2022-10-31T08:37:16;9.57;;;7.97;;
17595;SDS011;8916;47.086;15.920;2022-10-31T08:39:52;10.23;;;7.43;;
17595;SDS011;8916;47.086;15.920;2022-10-31T08:44:58;10.77;;;7.85;;
17595;SDS011;8916;47.086;15.920;2022-10-31T08:47:29;11.70;;;7.63;;
17595;SDS011;8916;47.086;15.920;2022-10-31T08:50:00;10.70;;;7.82;;
17595;SDS011;8916;47.086;15.920;2022-10-31T08:52:29;9.40;;;7.93;;
17595;SDS011;8916;47.086;15.920;2022-10-31T08:55:19;13.43;;;8.30;;
17595;SDS011;8916;47.086;15.920;2022-10-31T08:57:54;9.50;;;8.00;;
17595;SDS011;8916;47.086;15.920;2022-10-31T09:00:33;11.85;;;7.85;;
17595;SDS011;8916;47.086;15.920;2022-10-31T09:05:44;12.20;;;7.55;;
17595;SDS011;8916;47.086;15.920;2022-10-31T09:08:14;13.77;;;8.20;;
17595;SDS011;8916;47.086;15.920;2022-10-31T09:10:47;12.02;;;7.95;;
17595;SDS011;8916;47.086;15.920;2022-10-31T09:13:29;9.35;;;7.63;;
17595;SDS011;8916;47.086;15.920;2022-10-31T09:16:18;9.20;;;7.65;;
17595;SDS011;8916;47.086;15.920;2022-10-31T09:18:47;13.50;;;7.57;;
17595;SDS011;8916;47.086;15.920;2022-10-31T09:21:18;10.57;;;8.43;;
17595;SDS011;8916;47.086;15.920;2022-10-31T09:23:47;10.60;;;8.07;;
17595;SDS011;8916;47.086;15.920;2022-10-31T09:26:16;9.20;;;8.18;;
17595;SDS011;8916;47.086;15.920;2022-10-31T09:28:55;12.48;;;7.80;;
17595;SDS011;8916;47.086;15.920;2022-10-31T09:31:27;8.48;;;7.47;;
17595;SDS011;8916;47.086;15.920;2022-10-31T09:34:16;18.65;;;11.25;;
17595;SDS011;8916;47.086;15.920;2022-10-31T09:36:58;33.03;;;18.70;;
17595;SDS011;8916;47.086;15.920;2022-10-31T09:39:27;16.52;;;10.02;;
17595;SDS011;8916;47.086;15.920;2022-10-31T09:45:26;16.65;;;10.75;;
17595;SDS011;8916;47.086;15.920;2022-10-31T09:48:13;12.82;;;8.93;;
17595;SDS011;8916;47.086;15.920;2022-10-31T09:51:20;12.20;;;8.45;;
17595;SDS011;8916;47.086;15.920;2022-10-31T09:54:19;11.07;;;9.10;;
17595;SDS011;8916;47.086;15.920;2022-10-31T09:56:55;12.00;;;10.02;;
17595;SDS011;8916;47.086;15.920;2022-10-31T09:59:30;14.98;;;10.50;;
17595;SDS011;8916;47.086;15.920;2022-10-31T10:02:04;18.30;;;10.63;;
17595;SDS011;8916;47.086;15.920;2022-10-31T10:04:43;18.35;;;10.07;;
17595;SDS011;8916;47.086;15.920;2022-10-31T10:07:22;13.90;;;9.32;;
17595;SDS011;8916;47.086;15.920;2022-10-31T10:10:34;12.45;;;8.55;;
17595;SDS011;8916;47.086;15.920;2022-10-31T10:13:50;13.10;;;9.00;;
17595;SDS011;8916;47.086;15.920;2022-10-31T10:16:49;11.63;;;9.10;;
17595;SDS011;8916;47.086;15.920;2022-10-31T10:19:36;13.85;;;8.40;;
17595;SDS011;8916;47.086;15.920;2022-10-31T10:22:28;11.70;;;9.00;;
17595;SDS011;8916;47.086;15.920;2022-10-31T10:28:10;13.48;;;9.30;;
17595;SDS011;8916;47.086;15.920;2022-10-31T10:30:48;11.95;;;9.57;;
17595;SDS011;8916;47.086;15.920;2022-10-31T10:33:25;14.13;;;9.75;;
17595;SDS011;8916;47.086;15.920;2022-10-31T10:36:02;12.20;;;8.80;;
17595;SDS011;8916;47.086;15.920;2022-10-31T10:38:36;13.50;;;9.77;;
17595;SDS011;8916;47.086;15.920;2022-10-31T10:41:12;13.57;;;10.40;;
17595;SDS011;8916;47.086;15.920;2022-10-31T10:43:48;12.27;;;9.85;;
17595;SDS011;8916;47.086;15.920;2022-10-31T10:46:19;14.63;;;9.82;;
17595;SDS011;8916;47.086;15.920;2022-10-31T10:49:16;14.38;;;10.82;;
17595;SDS011;8916;47.086;15.920;2022-10-31T10:51:51;15.32;;;11.48;;
17595;SDS011;8916;47.086;15.920;2022-10-31T10:54:50;16.90;;;11.23;;
17595;SDS011;8916;47.086;15.920;2022-10-31T10:57:36;13.07;;;10.00;;
17595;SDS011;8916;47.086;15.920;2022-10-31T11:00:18;17.15;;;10.93;;
17595;SDS011;8916;47.086;15.920;2022-10-31T11:02:50;15.48;;;11.55;;
17595;SDS011;8916;47.086;15.920;2022-10-31T11:05:22;14.25;;;10.43;;
17595;SDS011;8916;47.086;15.920;2022-10-31T11:07:57;16.70;;;11.75;;
17595;SDS011;8916;47.086;15.920;2022-10-31T11:10:26;14.18;;;11.05;;
17595;SDS011;8916;47.086;15.920;2022-10-31T11:13:01;19.23;;;11.63;;
17595;SDS011;8916;47.086;15.920;2022-10-31T11:15:51;17.88;;;10.88;;
17595;SDS011;8916;47.086;15.920;2022-10-31T11:18:25;16.05;;;10.23;;
17595;SDS011;8916;47.086;15.920;2022-10-31T11:20:58;16.05;;;11.13;;
17595;SDS011;8916;47.086;15.920;2022-10-31T11:23:30;17.65;;;10.70;;
17595;SDS011;8916;47.086;15.920;2022-10-31T11:26:01;16.90;;;10.90;;
17595;SDS011;8916;47.086;15.920;2022-10-31T11:28:33;19.63;;;12.23;;
17595;SDS011;8916;47.086;15.920;2022-10-31T11:31:05;21.38;;;11.73;;
17595;SDS011;8916;47.086;15.920;2022-10-31T11:33:44;21.83;;;12.23;;
17595;SDS011;8916;47.086;15.920;2022-10-31T11:36:21;19.08;;;12.13;;
17595;SDS011;8916;47.086;15.920;2022-10-31T11:38:53;20.63;;;11.88;;
17595;SDS011;8916;47.086;15.920;2022-10-31T11:41:28;18.23;;;11.02;;
17595;SDS011;8916;47.086;15.920;2022-10-31T11:44:02;22.90;;;12.32;;
17595;SDS011;8916;47.086;15.920;2022-10-31T11:46:42;18.13;;;11.75;;
17595;SDS011;8916;47.086;15.920;2022-10-31T11:49:17;21.05;;;12.98;;
17595;SDS011;8916;47.086;15.920;2022-10-31T11:51:53;20.83;;;12.32;;
17595;SDS011;8916;47.086;15.920;2022-10-31T11:54:28;22.20;;;14.15;;
17595;SDS011;8916;47.086;15.920;2022-10-31T11:57:02;17.70;;;12.10;;
17595;SDS011;8916;47.086;15.920;2022-10-31T11:59:33;19.13;;;12.52;;
17595;SDS011;8916;47.086;15.920;2022-10-31T12:02:02;22.30;;;12.65;;
17595;SDS011;8916;47.086;15.920;2022-10-31T12:04:51;16.08;;;12.05;;
17595;SDS011;8916;47.086;15.920;2022-10-31T12:07:29;17.58;;;12.50;;
17595;SDS011;8916;47.086;15.920;2022-10-31T12:09:59;16.88;;;12.48;;
17595;SDS011;8916;47.086;15.920;2022-10-31T12:15:31;17.52;;;11.57;;
17595;SDS011;8916;47.086;15.920;2022-10-31T12:18:17;16.83;;;12.00;;
17595;SDS011;8916;47.086;15.920;2022-10-31T12:21:08;18.45;;;13.23;;
17595;SDS011;8916;47.086;15.920;2022-10-31T12:23:50;21.52;;;12.77;;
17595;SDS011;8916;47.086;15.920;2022-10-31T12:26:34;18.70;;;12.25;;
17595;SDS011;8916;47.086;15.920;2022-10-31T12:29:23;21.15;;;12.48;;
17595;SDS011;8916;47.086;15.920;2022-10-31T12:32:16;17.83;;;11.85;;
17595;SDS011;8916;47.086;15.920;2022-10-31T12:38:02;23.38;;;14.80;;
17595;SDS011;8916;47.086;15.920;2022-10-31T12:40:51;19.52;;;13.65;;
17595;SDS011;8916;47.086;15.920;2022-10-31T12:43:39;22.80;;;14.68;;
17595;SDS011;8916;47.086;15.920;2022-10-31T12:46:22;19.35;;;13.45;;
17595;SDS011;8916;47.086;15.920;2022-10-31T12:49:12;24.40;;;14.23;;
17595;SDS011;8916;47.086;15.920;2022-10-31T12:52:00;23.92;;;12.73;;
17595;SDS011;8916;47.086;15.920;2022-10-31T12:54:49;16.45;;;12.35;;
17595;SDS011;8916;47.086;15.920;2022-10-31T12:57:35;20.83;;;13.80;;
17595;SDS011;8916;47.086;15.920;2022-10-31T13:00:11;21.27;;;14.05;;
17595;SDS011;8916;47.086;15.920;2022-10-31T13:02:47;23.27;;;15.43;;
17595;SDS011;8916;47.086;15.920;2022-10-31T13:05:25;22.05;;;14.15;;
17595;SDS011;8916;47.086;15.920;2022-10-31T13:08:01;20.98;;;15.15;;
17595;SDS011;8916;47.086;15.920;2022-10-31T13:10:36;18.77;;;14.30;;
17595;SDS011;8916;47.086;15.920;2022-10-31T13:13:12;22.20;;;15.20;;
17595;SDS011;8916;47.086;15.920;2022-10-31T13:18:22;18.77;;;13.90;;
17595;SDS011;8916;47.086;15.920;2022-10-31T13:20:59;26.48;;;14.27;;
17595;SDS011;8916;47.086;15.920;2022-10-31T13:23:37;19.17;;;14.02;;
17595;SDS011;8916;47.086;15.920;2022-10-31T13:26:20;24.52;;;15.27;;
17595;SDS011;8916;47.086;15.920;2022-10-31T13:29:02;19.42;;;14.90;;
17595;SDS011;8916;47.086;15.920;2022-10-31T13:31:43;26.10;;;16.52;;
17595;SDS011;8916;47.086;15.920;2022-10-31T13:34:17;26.52;;;17.95;;
17595;SDS011;8916;47.086;15.920;2022-10-31T13:36:58;25.17;;;17.80;;
17595;SDS011;8916;47.086;15.920;2022-10-31T13:42:42;32.05;;;20.05;;
17595;SDS011;8916;47.086;15.920;2022-10-31T13:45:24;34.47;;;19.85;;
17595;SDS011;8916;47.086;15.920;2022-10-31T13:47:57;25.48;;;18.73;;
17595;SDS011;8916;47.086;15.920;2022-10-31T13:50:29;25.50;;;17.30;;
17595;SDS011;8916;47.086;15.920;2022-10-31T13:53:12;24.65;;;17.77;;
17595;SDS011;8916;47.086;15.920;2022-10-31T13:55:47;26.23;;;18.10;;
17595;SDS011;8916;47.086;15.920;2022-10-31T13:58:25;31.00;;;19.70;;
17595;SDS011;8916;47.086;15.920;2022-10-31T14:00:58;31.95;;;20.23;;
17595;SDS011;8916;47.086;15.920;2022-10-31T14:03:40;28.45;;;18.58;;
17595;SDS011;8916;47.086;15.920;2022-10-31T14:06:37;31.98;;;19.02;;
17595;SDS011;8916;47.086;15.920;2022-10-31T14:09:19;31.90;;;19.35;;
17595;SDS011;8916;47.086;15.920;2022-10-31T14:11:53;34.08;;;20.88;;
17595;SDS011;8916;47.086;15.920;2022-10-31T14:14:26;32.75;;;21.00;;
17595;SDS011;8916;47.086;15.920;2022-10-31T14:17:03;33.00;;;21.58;;
17595;SDS011;8916;47.086;15.920;2022-10-31T14:19:32;38.63;;;22.00;;
17595;SDS011;8916;47.086;15.920;2022-10-31T14:22:01;31.92;;;20.70;;
17595;SDS011;8916;47.086;15.920;2022-10-31T14:24:35;28.40;;;18.95;;
17595;SDS011;8916;47.086;15.920;2022-10-31T14:30:12;35.20;;;20.92;;
17595;SDS011;8916;47.086;15.920;2022-10-31T14:32:51;34.90;;;22.63;;
17595;SDS011;8916;47.086;15.920;2022-10-31T14:35:24;34.20;;;22.75;;
17595;SDS011;8916;47.086;15.920;2022-10-31T14:38:15;38.58;;;22.13;;
17595;SDS011;8916;47.086;15.920;2022-10-31T14:41:11;34.72;;;22.80;;
17595;SDS011;8916;47.086;15.920;2022-10-31T14:44:02;37.50;;;22.98;;
17595;SDS011;8916;47.086;15.920;2022-10-31T14:47:02;33.97;;;23.65;;
17595;SDS011;8916;47.086;15.920;2022-10-31T14:49:50;38.10;;;24.25;;
17595;SDS011;8916;47.086;15.920;2022-10-31T14:52:48;37.15;;;24.35;;
17595;SDS011;8916;47.086;15.920;2022-10-31T14:55:20;48.35;;;25.95;;
17595;SDS011;8916;47.086;15.920;2022-10-31T14:57:52;36.70;;;25.65;;
17595;SDS011;8916;47.086;15.920;2022-10-31T15:00:26;43.08;;;26.38;;
17595;SDS011;8916;47.086;15.920;2022-10-31T15:03:11;39.45;;;25.95;;
17595;SDS011;8916;47.086;15.920;2022-10-31T15:05:45;51.25;;;25.55;;
17595;SDS011;8916;47.086;15.920;2022-10-31T15:08:33;43.20;;;25.92;;
17595;SDS011;8916;47.086;15.920;2022-10-31T15:11:12;52.40;;;29.77;;
17595;SDS011;8916;47.086;15.920;2022-10-31T15:13:46;51.75;;;29.48;;
17595;SDS011;8916;47.086;15.920;2022-10-31T15:16:18;47.72;;;27.58;;
17595;SDS011;8916;47.086;15.920;2022-10-31T15:18:52;47.70;;;27.95;;
17595;SDS011;8916;47.086;15.920;2022-10-31T15:21:25;44.95;;;28.98;;
17595;SDS011;8916;47.086;15.920;2022-10-31T15:23:56;43.90;;;28.15;;
17595;SDS011;8916;47.086;15.920;2022-10-31T15:26:29;49.42;;;27.45;;
17595;SDS011;8916;47.086;15.920;2022-10-31T15:29:05;44.92;;;26.90;;
17595;SDS011;8916;47.086;15.920;2022-10-31T15:31:50;41.55;;;26.15;;
17595;SDS011;8916;47.086;15.920;2022-10-31T15:34:22;42.58;;;26.35;;
17595;SDS011;8916;47.086;15.920;2022-10-31T15:37:07;53.80;;;27.77;;
17595;SDS011;8916;47.086;15.920;2022-10-31T15:39:39;48.47;;;28.48;;
17595;SDS011;8916;47.086;15.920;2022-10-31T15:42:14;46.28;;;28.00;;
17595;SDS011;8916;47.086;15.920;2022-10-31T15:44:51;42.90;;;27.25;;
17595;SDS011;8916;47.086;15.920;2022-10-31T15:47:29;41.33;;;26.25;;
17595;SDS011;8916;47.086;15.920;2022-10-31T15:50:01;43.78;;;26.85;;
17595;SDS011;8916;47.086;15.920;2022-10-31T15:52:40;39.08;;;25.67;;
17595;SDS011;8916;47.086;15.920;2022-10-31T15:55:15;46.63;;;26.55;;
17595;SDS011;8916;47.086;15.920;2022-10-31T15:57:48;43.30;;;26.05;;